Hiko, Nevada
Current Conditions -  °F | °C
As of 11:58 PM on Friday 24 Oct 2014 (Local Time) from KINS Reporting Station
Clear Clear  
Wind Chill: 58°   Ceiling: Unl
Heat Index: 58°   Visibility: 10mi
Dew Point: 31°   Wind: 7mph
Humidity: 35%   Direction: 260°W
Pressure: 30.06"   Gusts: NA
Location:  37.6°N, 115.23°W
Report Text: KINS 250658Z AUTO 26006KT 10SM CLR 15/M01 A3006 RMK AO2 SLP145 T01471007 $
Loading
Personal Weather Stations






























Interactive Weather Map
Tropical Storm Tracking
New forecast layout! Learn more

10-Day Weather Forecast

Advertisements
Track Severe Weather on mobile